Time;durP1;ratioP1;P1;durP2;ratioP2;P2;SDS_P1;SDS_P2;PMS_P1;PMS_P2;Temp;Humidity;BMP_temperature;BMP_pressure;BME280_temperature;BME280_humidity;BME280_pressure;Samples;Min_cycle;Max_cycle;Signal;HPM_P1;HPM_P2
2021/12/24 00:01:30;;;;;;;9.75;7.60;;;18.50;99.90;;;;;;4169062;28;20217;-71
2021/12/24 00:03:33;;;;;;;8.73;7.38;;;18.60;99.90;;;;;;4166353;28;20224;-71
2021/12/24 00:05:36;;;;;;;8.23;6.70;;;18.60;99.90;;;;;;4166088;28;20220;-71
2021/12/24 00:07:39;;;;;;;9.38;7.95;;;18.50;99.90;;;;;;4165967;28;20224;-71
2021/12/24 00:09:42;;;;;;;9.45;7.15;;;18.50;99.90;;;;;;4165716;28;20224;-71
2021/12/24 00:11:45;;;;;;;9.02;7.03;;;18.60;99.90;;;;;;4165909;28;20270;-71
2021/12/24 00:13:49;;;;;;;8.32;7.28;;;18.50;99.90;;;;;;4165801;28;20926;-71
2021/12/24 00:16:01;;;;;;;8.00;6.72;;;18.50;99.90;;;;;;4165689;28;20220;-71
2021/12/24 00:18:10;;;;;;;8.13;7.20;;;18.50;99.90;;;;;;4165606;28;20267;-71
2021/12/24 00:20:37;;;;;;;8.77;6.75;;;18.50;99.90;;;;;;4175845;28;20679;-71
2021/12/24 00:23:08;;;;;;;10.05;7.00;;;18.50;99.90;;;;;;4173475;28;20207;-71
2021/12/24 00:36:48;;;;;;;9.55;6.95;;;18.50;99.90;;;;;;4182487;28;20579;-71
2021/12/24 00:38:51;;;;;;;8.00;6.95;;;18.50;99.90;;;;;;4177807;28;20268;-71
2021/12/24 00:40:55;;;;;;;8.45;7.25;;;18.40;99.90;;;;;;4182399;28;20216;-71
2021/12/24 00:42:58;;;;;;;7.78;6.57;;;18.50;99.90;;;;;;4181983;28;20718;-71
2021/12/24 00:45:00;;;;;;;8.05;7.13;;;18.40;99.90;;;;;;4181985;28;20253;-71
2021/12/24 00:47:03;;;;;;;8.38;6.50;;;18.40;99.90;;;;;;4181540;28;20219;-71
2021/12/24 00:49:05;;;;;;;8.48;6.88;;;18.40;99.90;;;;;;4182375;28;20219;-71
2021/12/24 00:51:19;;;;;;;8.57;6.88;;;18.40;99.90;;;;;;4181362;28;20215;-71
2021/12/24 00:55:42;;;;;;;6.70;6.05;;;18.40;99.90;;;;;;4182148;28;20219;-71
2021/12/24 00:57:48;;;;;;;7.60;6.80;;;18.40;99.90;;;;;;4178890;28;20208;-71
2021/12/24 00:59:50;;;;;;;8.20;6.82;;;18.40;99.90;;;;;;4182283;28;20216;-71
2021/12/24 01:01:53;;;;;;;8.45;6.65;;;18.40;99.90;;;;;;4184244;28;20211;-71
2021/12/24 01:03:55;;;;;;;6.82;6.10;;;18.40;99.90;;;;;;4183796;28;20219;-71
2021/12/24 01:05:57;;;;;;;8.15;6.72;;;18.40;99.90;;;;;;4185692;28;20219;-71
2021/12/24 01:08:00;;;;;;;8.27;6.82;;;18.40;99.90;;;;;;4184032;28;20223;-71
2021/12/24 01:10:03;;;;;;;9.70;7.03;;;18.40;99.90;;;;;;4177068;28;20753;-71
2021/12/24 01:12:06;;;;;;;8.52;6.90;;;18.40;99.90;;;;;;4185932;28;20257;-71
2021/12/24 01:14:10;;;;;;;7.88;6.60;;;18.40;99.90;;;;;;4185853;28;20301;-71
2021/12/24 01:16:21;;;;;;;9.60;6.60;;;18.40;99.90;;;;;;4185495;28;20228;-71
2021/12/24 01:18:32;;;;;;;8.02;6.60;;;18.40;99.90;;;;;;4184036;28;20733;-71
2021/12/24 01:20:42;;;;;;;7.40;6.38;;;18.30;99.90;;;;;;4182306;28;20219;-71
2021/12/24 01:25:11;;;;;;;8.48;6.90;;;18.30;99.90;;;;;;4186404;28;20199;-71
2021/12/24 01:27:23;;;;;;;8.10;6.50;;;18.30;99.90;;;;;;4185338;28;20258;-71
2021/12/24 01:38:59;;;;;;;7.65;6.55;;;18.30;99.90;;;;;;4183785;28;20240;-71
2021/12/24 01:41:07;;;;;;;7.65;6.40;;;18.30;99.90;;;;;;4183264;28;20226;-71
2021/12/24 01:43:08;;;;;;;6.97;5.88;;;18.30;99.90;;;;;;4183216;28;20654;-71
2021/12/24 01:45:18;;;;;;;6.63;5.93;;;18.30;99.90;;;;;;4183597;28;20249;-71
2021/12/24 01:47:20;;;;;;;6.82;6.13;;;18.30;99.90;;;;;;4184161;28;20262;-71
2021/12/24 01:49:23;;;;;;;9.02;6.57;;;18.30;99.90;;;;;;4183304;28;20219;-71
2021/12/24 01:51:25;;;;;;;7.45;6.63;;;18.30;99.90;;;;;;4182656;28;20269;-71
2021/12/24 01:53:29;;;;;;;9.40;6.45;;;18.30;99.90;;;;;;4183904;28;20288;-71
2021/12/24 01:55:32;;;;;;;7.53;6.38;;;18.30;99.90;;;;;;4185658;28;20290;-71
2021/12/24 01:57:35;;;;;;;7.88;6.57;;;18.30;99.90;;;;;;4197373;28;20214;-71
2021/12/24 01:59:38;;;;;;;8.18;6.45;;;18.30;99.90;;;;;;4197062;28;20672;-71
2021/12/24 02:01:42;;;;;;;7.47;6.65;;;18.30;99.90;;;;;;4197309;28;20219;-71
2021/12/24 02:03:44;;;;;;;8.75;6.82;;;18.20;99.90;;;;;;4197143;28;20249;-71
2021/12/24 02:05:48;;;;;;;6.82;6.13;;;18.30;99.90;;;;;;4197042;28;20211;-71
2021/12/24 02:07:50;;;;;;;6.78;5.88;;;18.20;99.90;;;;;;4197270;28;20301;-71
2021/12/24 02:09:54;;;;;;;7.72;6.20;;;18.20;99.90;;;;;;4197057;28;20215;-71
2021/12/24 02:11:58;;;;;;;7.13;5.90;;;18.20;99.90;;;;;;4196875;28;20268;-71
2021/12/24 02:14:03;;;;;;;8.13;6.45;;;18.20;99.90;;;;;;4181737;28;20232;-71
2021/12/24 02:16:14;;;;;;;6.88;5.85;;;18.20;99.90;;;;;;4181282;28;20236;-71
2021/12/24 02:28:14;;;;;;;7.25;5.60;;;18.20;99.90;;;;;;4180610;28;20606;-71
2021/12/24 02:30:33;;;;;;;7.10;6.30;;;18.20;99.90;;;;;;4129995;28;20240;-71
2021/12/24 02:32:35;;;;;;;7.78;6.72;;;18.20;99.90;;;;;;4154268;28;20239;-71
2021/12/24 02:34:38;;;;;;;8.93;6.53;;;18.20;99.90;;;;;;4180372;28;20741;-71
2021/12/24 02:36:41;;;;;;;6.05;5.45;;;18.10;99.90;;;;;;4180208;28;20212;-71
2021/12/24 02:38:44;;;;;;;7.20;5.95;;;18.20;99.90;;;;;;4180136;28;20259;-71
2021/12/24 02:40:47;;;;;;;7.30;5.85;;;18.20;99.90;;;;;;4179826;28;20223;-71
2021/12/24 02:42:53;;;;;;;8.75;6.32;;;18.20;99.90;;;;;;4180653;28;20216;-72
2021/12/24 02:44:55;;;;;;;7.40;6.20;;;18.20;99.90;;;;;;4180255;28;20266;-71
2021/12/24 02:47:14;;;;;;;6.43;5.65;;;18.10;99.90;;;;;;4180026;28;20216;-71
2021/12/24 02:53:54;;;;;;;7.38;6.03;;;18.20;99.90;;;;;;4180149;28;20212;-71
2021/12/24 02:54:00;;;;;;;7.72;5.68;;;18.10;99.90;;;;;;4180499;28;20192;-71
2021/12/24 02:56:04;;;;;;;7.53;5.72;;;18.20;99.90;;;;;;4180083;28;20290;-71
2021/12/24 02:58:06;;;;;;;8.23;5.97;;;18.20;99.90;;;;;;4179620;28;20215;-71
2021/12/24 03:00:15;;;;;;;7.10;5.68;;;18.10;99.90;;;;;;4179901;28;20269;-71
2021/12/24 03:02:17;;;;;;;7.00;5.75;;;18.10;99.90;;;;;;4179538;28;20216;-71
2021/12/24 03:04:19;;;;;;;8.57;5.78;;;18.10;99.90;;;;;;4180330;28;20216;-71
2021/12/24 03:06:24;;;;;;;7.30;6.30;;;18.10;99.90;;;;;;4180022;28;20238;-71
2021/12/24 03:08:28;;;;;;;8.07;6.25;;;18.10;99.90;;;;;;4180023;28;20219;-71
2021/12/24 03:10:30;;;;;;;7.65;6.07;;;18.10;99.90;;;;;;4179887;28;20269;-71
2021/12/24 03:12:33;;;;;;;6.40;5.63;;;18.10;99.90;;;;;;4176812;28;20242;-71
2021/12/24 03:14:35;;;;;;;8.82;6.70;;;18.10;99.90;;;;;;4184519;28;20207;-71
2021/12/24 03:16:39;;;;;;;7.43;5.70;;;18.10;99.90;;;;;;4199781;28;20235;-71
2021/12/24 03:18:42;;;;;;;6.93;5.70;;;18.10;99.90;;;;;;4199959;28;20219;-71
2021/12/24 03:20:45;;;;;;;6.43;5.38;;;18.10;99.90;;;;;;4199815;28;20211;-71
2021/12/24 03:23:02;;;;;;;6.43;5.13;;;18.10;99.90;;;;;;4190562;28;20261;-71
2021/12/24 03:25:06;;;;;;;7.32;6.00;;;18.10;99.90;;;;;;4183063;28;20265;-71
2021/12/24 03:27:12;;;;;;;7.53;5.78;;;18.10;99.90;;;;;;4183568;28;20605;-71
2021/12/24 03:29:17;;;;;;;6.75;5.40;;;18.10;99.90;;;;;;4183208;28;20220;-71
2021/12/24 03:31:19;;;;;;;7.30;6.18;;;18.10;99.90;;;;;;4182749;28;20215;-71
2021/12/24 03:33:21;;;;;;;6.70;5.32;;;18.10;99.90;;;;;;4182918;28;20215;-71
2021/12/24 03:35:24;;;;;;;10.30;5.90;;;18.10;99.90;;;;;;4183165;28;20569;-71
2021/12/24 03:37:26;;;;;;;7.25;5.40;;;18.00;99.90;;;;;;4182974;28;20300;-71
2021/12/24 03:39:29;;;;;;;7.20;5.82;;;18.10;99.90;;;;;;4183346;28;20261;-71
2021/12/24 03:41:33;;;;;;;6.50;5.72;;;18.10;99.90;;;;;;4182854;28;20216;-71
2021/12/24 03:43:35;;;;;;;6.70;5.40;;;18.10;99.90;;;;;;4183034;28;20250;-71
2021/12/24 03:45:44;;;;;;;6.50;5.45;;;18.10;99.90;;;;;;4182668;28;20253;-71
2021/12/24 03:47:53;;;;;;;7.70;5.55;;;18.10;99.90;;;;;;4182942;28;20238;-71
2021/12/24 03:50:01;;;;;;;8.57;5.82;;;18.00;99.90;;;;;;4182696;28;20281;-71
2021/12/24 03:52:18;;;;;;;9.27;6.25;;;18.00;99.90;;;;;;4182964;28;20219;-71
2021/12/24 03:56:43;;;;;;;6.97;5.57;;;18.10;99.90;;;;;;4183256;28;20231;-71
2021/12/24 03:58:45;;;;;;;7.38;5.32;;;18.00;99.90;;;;;;4182854;28;20265;-71
2021/12/24 04:00:48;;;;;;;8.73;5.85;;;18.00;99.90;;;;;;4182691;28;20223;-71
2021/12/24 04:02:51;;;;;;;7.25;5.72;;;18.00;99.90;;;;;;4182711;28;20215;-71
2021/12/24 04:04:53;;;;;;;9.27;5.82;;;18.00;99.90;;;;;;4182649;28;20254;-71
2021/12/24 04:06:55;;;;;;;8.60;5.82;;;18.00;99.90;;;;;;4182410;28;20624;-71
2021/12/24 04:08:58;;;;;;;7.63;5.47;;;18.00;99.90;;;;;;4182513;28;20216;-71
2021/12/24 04:11:00;;;;;;;6.28;5.65;;;18.00;99.90;;;;;;4182701;28;20261;-71
2021/12/24 04:13:03;;;;;;;6.97;5.75;;;18.00;99.90;;;;;;4182619;28;20261;-71
2021/12/24 04:15:06;;;;;;;6.35;5.35;;;17.90;99.90;;;;;;4182068;28;20265;-71
2021/12/24 04:17:09;;;;;;;7.45;5.03;;;18.00;99.90;;;;;;4182521;28;20639;-71
2021/12/24 04:26:10;;;;;;;5.97;4.97;;;18.00;99.90;;;;;;4166149;28;20181;-71
2021/12/24 04:28:13;;;;;;;7.80;5.68;;;17.90;99.90;;;;;;4166226;28;20220;-71
2021/12/24 04:30:21;;;;;;;6.10;5.10;;;18.00;99.90;;;;;;4166090;28;20717;-71
2021/12/24 04:32:33;;;;;;;8.43;5.38;;;17.90;99.90;;;;;;4165654;28;20232;-71
2021/12/24 04:34:38;;;;;;;6.43;5.05;;;18.00;99.90;;;;;;4165826;28;20286;-71
2021/12/24 04:37:08;;;;;;;7.70;5.45;;;17.90;99.90;;;;;;4165838;28;20311;-71
2021/12/24 04:39:36;;;;;;;6.65;5.32;;;17.90;99.90;;;;;;4165476;28;20212;-71
2021/12/24 04:51:11;;;;;;;7.45;5.68;;;17.90;99.90;;;;;;4165601;28;20204;-71
2021/12/24 05:02:48;;;;;;;7.78;5.55;;;17.90;99.90;;;;;;4172583;28;20192;-71
2021/12/24 05:04:56;;;;;;;7.57;5.43;;;17.90;99.90;;;;;;4178835;28;20277;-71
2021/12/24 05:07:07;;;;;;;10.88;5.90;;;17.90;99.90;;;;;;4176487;28;20249;-71
2021/12/24 05:09:12;;;;;;;7.50;5.22;;;17.90;99.90;;;;;;4179232;28;20245;-71
2021/12/24 05:11:14;;;;;;;7.07;5.40;;;17.80;99.90;;;;;;4181720;28;20216;-71
2021/12/24 05:13:19;;;;;;;6.72;5.40;;;17.90;99.90;;;;;;4181721;28;20219;-71
2021/12/24 05:15:23;;;;;;;7.38;5.28;;;17.90;99.90;;;;;;4181615;28;20614;-71
2021/12/24 05:17:31;;;;;;;8.02;5.38;;;17.90;99.90;;;;;;4181138;28;20236;-71
2021/12/24 05:21:55;;;;;;;7.93;5.45;;;17.90;99.90;;;;;;4181580;28;20192;-71
2021/12/24 05:23:57;;;;;;;6.38;5.20;;;17.90;99.90;;;;;;4181675;28;20659;-71
2021/12/24 05:26:01;;;;;;;6.75;5.55;;;17.80;99.90;;;;;;4181368;28;20656;-71
2021/12/24 05:28:03;;;;;;;9.27;5.60;;;17.80;99.90;;;;;;4181575;28;20208;-71
2021/12/24 05:30:07;;;;;;;7.40;5.22;;;17.80;99.90;;;;;;4181593;28;20215;-71
2021/12/24 05:32:11;;;;;;;7.78;5.68;;;17.80;99.90;;;;;;4181160;28;20236;-71
2021/12/24 05:34:17;;;;;;;8.60;5.28;;;17.80;99.90;;;;;;4181411;28;20215;-71
2021/12/24 05:36:19;;;;;;;6.88;5.10;;;17.80;99.90;;;;;;4180960;28;20260;-71
2021/12/24 05:38:21;;;;;;;7.65;5.18;;;17.80;99.90;;;;;;4180773;28;20216;-71
2021/12/24 05:40:24;;;;;;;6.75;4.93;;;17.80;99.90;;;;;;4181504;28;20270;-71
2021/12/24 05:42:27;;;;;;;6.40;5.38;;;17.80;99.90;;;;;;4181450;28;20258;-71
2021/12/24 05:44:31;;;;;;;7.20;5.40;;;17.80;99.90;;;;;;4181529;28;20224;-71
2021/12/24 05:46:34;;;;;;;7.78;5.43;;;17.80;99.90;;;;;;4181141;28;20269;-71
2021/12/24 05:48:37;;;;;;;6.72;5.20;;;17.80;99.90;;;;;;4180984;28;20212;-71
2021/12/24 05:50:40;;;;;;;9.48;5.80;;;17.80;99.90;;;;;;4181058;28;20668;-71
2021/12/24 05:52:42;;;;;;;8.60;5.55;;;17.80;99.90;;;;;;4181111;28;20615;-71
2021/12/24 05:54:44;;;;;;;7.70;5.30;;;17.80;99.90;;;;;;4180883;28;20215;-71
2021/12/24 05:56:47;;;;;;;6.57;5.00;;;17.80;99.90;;;;;;4181030;28;20258;-71
2021/12/24 05:58:49;;;;;;;7.20;4.97;;;17.80;99.90;;;;;;4181009;28;20266;-71
2021/12/24 06:00:51;;;;;;;7.13;5.30;;;17.80;99.90;;;;;;4180945;28;20220;-71
2021/12/24 06:02:54;;;;;;;7.07;5.07;;;17.70;99.90;;;;;;4180849;28;20275;-71
2021/12/24 06:04:57;;;;;;;6.65;4.82;;;17.80;99.90;;;;;;4180883;28;20220;-71
2021/12/24 06:07:00;;;;;;;9.15;5.60;;;17.80;99.90;;;;;;4180640;28;20261;-71
2021/12/24 06:09:02;;;;;;;7.40;5.28;;;17.80;99.90;;;;;;4180714;28;20626;-71
2021/12/24 06:11:05;;;;;;;9.32;5.68;;;17.90;99.90;;;;;;4180988;28;20278;-71
2021/12/24 06:13:08;;;;;;;8.35;5.40;;;17.90;99.90;;;;;;4180543;28;20224;-71
2021/12/24 06:15:10;;;;;;;7.55;5.40;;;17.90;99.90;;;;;;4180663;28;20668;-71
2021/12/24 06:17:16;;;;;;;6.50;5.05;;;18.00;99.90;;;;;;4180600;28;20286;-71
2021/12/24 06:19:19;;;;;;;6.88;4.97;;;18.00;99.90;;;;;;4180860;28;20215;-71
2021/12/24 06:21:22;;;;;;;6.65;5.13;;;18.00;99.90;;;;;;4180383;28;20277;-71
2021/12/24 06:23:27;;;;;;;8.80;5.55;;;18.00;99.90;;;;;;4180406;28;20688;-71
2021/12/24 06:25:29;;;;;;;8.45;5.40;;;18.00;99.90;;;;;;4180510;28;20285;-71
2021/12/24 06:27:32;;;;;;;8.35;5.32;;;18.00;99.90;;;;;;4180519;28;20208;-71
2021/12/24 06:29:34;;;;;;;7.95;4.95;;;18.10;99.90;;;;;;4180577;28;20541;-71
2021/12/24 06:31:36;;;;;;;9.40;5.40;;;18.10;99.90;;;;;;4180344;28;20692;-71
2021/12/24 06:33:38;;;;;;;7.72;5.05;;;18.10;99.90;;;;;;4180434;28;20215;-71
2021/12/24 06:35:41;;;;;;;10.20;5.38;;;18.10;99.90;;;;;;4180060;28;20215;-71
2021/12/24 06:37:44;;;;;;;9.15;5.82;;;18.10;99.90;;;;;;4180024;28;20239;-71
2021/12/24 06:39:47;;;;;;;6.82;4.50;;;18.10;99.90;;;;;;4180613;28;20219;-71
2021/12/24 06:41:49;;;;;;;10.55;5.70;;;18.10;99.90;;;;;;4180730;28;20257;-71
2021/12/24 06:43:52;;;;;;;9.82;4.80;;;18.10;99.90;;;;;;4180295;28;20573;-71
2021/12/24 06:45:54;;;;;;;9.07;5.30;;;18.10;99.90;;;;;;4180191;28;20220;-71
2021/12/24 06:47:59;;;;;;;8.18;5.00;;;18.10;99.90;;;;;;4180042;28;20614;-71
2021/12/24 06:50:01;;;;;;;7.97;5.05;;;18.10;99.90;;;;;;4174411;28;20665;-71
2021/12/24 06:52:04;;;;;;;6.75;4.60;;;18.10;99.90;;;;;;4180575;28;20272;-71
2021/12/24 06:54:09;;;;;;;6.43;4.55;;;18.10;99.90;;;;;;4180301;28;20578;-71
2021/12/24 06:56:11;;;;;;;7.20;4.65;;;18.20;99.90;;;;;;4180524;28;20593;-71
2021/12/24 06:58:13;;;;;;;5.68;4.35;;;18.10;99.90;;;;;;4179795;28;20282;-71
2021/12/24 07:00:18;;;;;;;8.02;4.95;;;18.10;99.90;;;;;;4180200;28;20721;-71
2021/12/24 07:02:20;;;;;;;6.80;4.47;;;18.10;99.90;;;;;;4179940;28;20216;-71
2021/12/24 07:04:22;;;;;;;6.18;4.57;;;18.10;99.90;;;;;;4179901;28;20212;-71
2021/12/24 07:06:25;;;;;;;6.53;4.57;;;18.10;99.90;;;;;;4180411;28;20338;-71
2021/12/24 07:08:28;;;;;;;6.45;4.63;;;18.10;99.90;;;;;;4180214;28;20269;-71
2021/12/24 07:10:32;;;;;;;6.30;4.40;;;18.10;99.90;;;;;;4179749;28;20220;-71
2021/12/24 07:12:36;;;;;;;6.88;4.47;;;18.20;99.90;;;;;;4180102;28;20269;-71
2021/12/24 07:14:38;;;;;;;5.07;3.92;;;18.20;99.90;;;;;;4179934;28;20219;-71
2021/12/24 07:16:40;;;;;;;6.53;4.50;;;18.20;99.90;;;;;;4180129;28;20220;-71
2021/12/24 07:18:43;;;;;;;8.80;5.10;;;18.20;99.90;;;;;;4180353;28;20232;-71
2021/12/24 07:20:45;;;;;;;6.95;4.10;;;18.20;99.90;;;;;;4179790;28;20628;-71
2021/12/24 07:22:48;;;;;;;6.72;4.43;;;18.20;99.90;;;;;;4180199;28;20192;-71
2021/12/24 07:24:50;;;;;;;5.80;4.90;;;18.20;99.90;;;;;;4179848;28;20250;-71
2021/12/24 07:26:54;;;;;;;7.50;4.80;;;18.20;99.90;;;;;;4179601;28;20683;-71
2021/12/24 07:28:56;;;;;;;6.65;4.22;;;18.20;99.90;;;;;;4179530;28;20211;-71
2021/12/24 07:30:58;;;;;;;7.43;4.65;;;18.20;99.90;;;;;;4179756;28;20215;-71
2021/12/24 07:33:02;;;;;;;5.90;4.35;;;18.20;99.90;;;;;;4179384;28;20223;-71
2021/12/24 07:35:05;;;;;;;8.75;4.68;;;18.20;99.90;;;;;;4180130;28;20223;-71
2021/12/24 07:37:08;;;;;;;5.68;4.65;;;18.20;99.90;;;;;;4179764;28;20623;-71
2021/12/24 07:39:10;;;;;;;6.97;4.95;;;18.20;99.90;;;;;;4179375;28;20236;-71
2021/12/24 07:41:14;;;;;;;6.47;4.38;;;18.20;99.90;;;;;;4179581;28;20216;-71
2021/12/24 07:43:18;;;;;;;6.28;4.43;;;18.20;99.90;;;;;;4179595;28;20219;-71
2021/12/24 07:45:20;;;;;;;6.68;4.22;;;18.20;99.90;;;;;;4179500;28;20266;-71
2021/12/24 07:47:31;;;;;;;5.88;4.50;;;18.20;99.90;;;;;;4179624;28;20219;-71
2021/12/24 07:49:39;;;;;;;6.97;4.13;;;18.20;99.90;;;;;;4179449;28;20228;-71
2021/12/24 07:54:07;;;;;;;6.53;4.30;;;18.30;99.90;;;;;;4164061;28;20283;-71
2021/12/24 07:56:09;;;;;;;5.22;3.95;;;18.30;99.90;;;;;;4179627;28;20220;-71
2021/12/24 07:58:13;;;;;;;5.93;4.00;;;18.30;99.90;;;;;;4179776;28;20235;-71
2021/12/24 08:00:19;;;;;;;6.68;4.28;;;18.30;99.90;;;;;;4179739;28;20616;-71
2021/12/24 08:02:26;;;;;;;6.10;3.75;;;18.30;99.90;;;;;;4182591;28;20193;-71
2021/12/24 08:04:28;;;;;;;5.47;3.92;;;18.30;99.90;;;;;;4182794;28;20215;-71
2021/12/24 08:06:31;;;;;;;7.20;4.18;;;18.30;99.90;;;;;;4182529;28;20668;-71
2021/12/24 08:08:33;;;;;;;6.82;4.43;;;18.30;99.90;;;;;;4182564;28;20216;-71
2021/12/24 08:10:37;;;;;;;6.25;4.20;;;18.30;99.90;;;;;;4182530;28;20215;-71
2021/12/24 08:12:39;;;;;;;4.68;3.75;;;18.30;99.90;;;;;;4180437;28;20266;-71
2021/12/24 08:14:41;;;;;;;7.50;4.32;;;18.30;99.90;;;;;;4182600;28;20208;-71
2021/12/24 08:16:45;;;;;;;6.80;4.05;;;18.30;99.90;;;;;;4182780;28;20988;-71
2021/12/24 08:18:47;;;;;;;8.55;4.63;;;18.30;99.90;;;;;;4182408;28;20235;-71
2021/12/24 08:20:50;;;;;;;7.30;4.53;;;18.30;99.90;;;;;;4182722;28;20220;-72
2021/12/24 08:22:53;;;;;;;6.55;3.95;;;18.30;99.90;;;;;;4182307;28;20204;-72
2021/12/24 08:24:55;;;;;;;5.72;4.25;;;18.30;99.90;;;;;;4182157;28;20228;-72
2021/12/24 08:26:58;;;;;;;5.78;4.05;;;18.40;99.90;;;;;;4182169;28;20220;-71
2021/12/24 08:29:00;;;;;;;5.65;3.78;;;18.30;99.90;;;;;;4182326;28;20215;-71
2021/12/24 08:31:02;;;;;;;5.03;3.90;;;18.30;99.90;;;;;;4182349;28;20615;-71
2021/12/24 08:33:10;;;;;;;5.97;3.88;;;18.30;99.90;;;;;;4181790;28;20282;-71
2021/12/24 08:35:15;;;;;;;6.95;4.55;;;18.30;99.90;;;;;;4182378;28;20237;-71
2021/12/24 08:37:17;;;;;;;6.18;3.78;;;18.30;99.90;;;;;;4182256;28;20544;-71
2021/12/24 08:39:22;;;;;;;6.88;4.35;;;18.30;99.90;;;;;;4182004;28;20290;-71
2021/12/24 08:41:24;;;;;;;5.53;4.20;;;18.40;99.90;;;;;;4182152;28;20237;-71
2021/12/24 08:43:27;;;;;;;5.15;3.97;;;18.40;99.90;;;;;;4181664;28;20220;-71
2021/12/24 08:45:29;;;;;;;5.00;3.67;;;18.40;99.90;;;;;;4181695;28;20242;-71
2021/12/24 08:47:31;;;;;;;7.13;4.05;;;18.40;99.90;;;;;;4182197;28;20220;-71
2021/12/24 08:49:35;;;;;;;6.90;4.20;;;18.40;99.90;;;;;;4182124;28;20258;-71
2021/12/24 08:51:37;;;;;;;5.22;4.00;;;18.40;99.90;;;;;;4181937;28;20266;-71
2021/12/24 08:53:40;;;;;;;5.30;3.83;;;18.40;99.90;;;;;;4181700;28;20277;-71
2021/12/24 08:55:44;;;;;;;4.93;4.03;;;18.40;99.90;;;;;;4181849;28;20726;-71
2021/12/24 08:57:47;;;;;;;6.80;4.38;;;18.40;99.90;;;;;;4181816;28;20257;-71
2021/12/24 08:59:49;;;;;;;5.45;3.97;;;18.50;99.90;;;;;;4181666;28;20704;-72
2021/12/24 09:01:51;;;;;;;6.22;4.00;;;18.50;99.90;;;;;;4181926;28;20219;-71
2021/12/24 09:03:54;;;;;;;5.75;3.67;;;18.50;99.90;;;;;;4181290;28;20215;-71
2021/12/24 09:05:57;;;;;;;6.97;4.40;;;18.50;99.90;;;;;;4181487;28;20220;-71
2021/12/24 09:08:01;;;;;;;6.60;4.03;;;18.50;99.90;;;;;;4181698;28;20266;-71
2021/12/24 09:10:04;;;;;;;6.03;3.95;;;18.50;99.90;;;;;;4181781;28;20257;-71
2021/12/24 09:12:07;;;;;;;5.88;3.65;;;18.50;99.90;;;;;;4181206;28;20261;-71
2021/12/24 09:14:10;;;;;;;5.82;3.97;;;18.60;99.90;;;;;;4180958;28;20224;-71
2021/12/24 09:16:13;;;;;;;5.68;3.75;;;18.50;99.90;;;;;;4181882;28;20238;-71
2021/12/24 09:18:15;;;;;;;6.60;3.92;;;18.50;99.90;;;;;;4181333;28;20257;-71
2021/12/24 09:20:24;;;;;;;6.15;4.03;;;18.60;99.90;;;;;;4181356;28;20227;-71
2021/12/24 09:22:32;;;;;;;6.28;4.10;;;18.60;99.90;;;;;;4181075;28;20207;-71
2021/12/24 09:24:36;;;;;;;6.88;4.28;;;18.60;99.90;;;;;;4181564;28;20273;-71
2021/12/24 09:26:40;;;;;;;6.90;4.10;;;18.60;99.90;;;;;;4181276;28;20514;-71
2021/12/24 09:28:44;;;;;;;5.63;3.85;;;18.60;99.90;;;;;;4178968;28;20215;-71
2021/12/24 09:30:47;;;;;;;6.88;3.90;;;18.70;99.90;;;;;;4179986;28;20254;-71
2021/12/24 09:32:49;;;;;;;4.80;3.75;;;18.70;99.90;;;;;;4180320;28;20578;-71
2021/12/24 09:34:51;;;;;;;7.00;4.00;;;18.70;99.90;;;;;;4180008;28;20265;-71
2021/12/24 09:36:54;;;;;;;6.22;4.25;;;18.70;99.90;;;;;;4180368;28;20281;-71
2021/12/24 09:39:00;;;;;;;6.00;4.20;;;18.70;99.90;;;;;;4180563;28;21065;-71
2021/12/24 09:41:03;;;;;;;6.32;4.38;;;18.70;99.90;;;;;;4180540;28;20216;-72
2021/12/24 09:43:05;;;;;;;6.10;4.18;;;18.70;99.90;;;;;;4181128;28;20215;-71
2021/12/24 09:45:10;;;;;;;6.68;4.47;;;18.70;99.90;;;;;;4181142;28;20274;-71
2021/12/24 09:47:12;;;;;;;6.93;4.63;;;18.70;99.90;;;;;;4181097;28;20220;-71
2021/12/24 09:49:15;;;;;;;5.40;4.18;;;18.70;99.90;;;;;;4180648;28;20212;-71
2021/12/24 09:51:17;;;;;;;6.15;4.13;;;18.70;99.90;;;;;;4180834;28;20216;-71
2021/12/24 09:53:20;;;;;;;6.40;4.38;;;18.70;99.90;;;;;;4181383;28;20217;-71
2021/12/24 09:55:26;;;;;;;6.70;4.13;;;18.70;99.90;;;;;;4180823;28;20270;-71
2021/12/24 09:57:28;;;;;;;7.20;4.70;;;18.70;99.90;;;;;;4181109;28;20219;-71
2021/12/24 09:59:31;;;;;;;6.50;3.97;;;18.70;99.90;;;;;;4180909;28;20282;-71
2021/12/24 10:01:35;;;;;;;7.60;4.18;;;18.70;99.90;;;;;;4173825;28;20270;-71
2021/12/24 10:03:38;;;;;;;6.07;4.03;;;18.70;99.90;;;;;;4169143;28;20255;-71
2021/12/24 10:05:44;;;;;;;5.32;3.78;;;18.70;99.90;;;;;;4164267;28;20560;-71
2021/12/24 10:07:47;;;;;;;5.78;4.03;;;18.80;99.90;;;;;;4164223;28;20259;-71
2021/12/24 10:09:49;;;;;;;5.82;4.25;;;18.80;99.90;;;;;;4164046;28;20236;-71
2021/12/24 10:11:57;;;;;;;6.28;4.38;;;18.80;99.90;;;;;;4164539;28;20271;-72
2021/12/24 10:14:05;;;;;;;6.93;4.35;;;18.80;99.90;;;;;;4164122;28;20736;-71
2021/12/24 10:16:09;;;;;;;6.65;4.45;;;18.80;99.90;;;;;;4164268;28;20270;-71
2021/12/24 10:18:27;;;;;;;5.43;4.20;;;18.80;99.90;;;;;;4164111;28;20221;-72
2021/12/24 10:20:29;;;;;;;6.10;4.35;;;18.80;99.90;;;;;;4163743;28;20236;-71
2021/12/24 10:22:44;;;;;;;6.63;4.00;;;18.90;99.90;;;;;;4163849;28;20228;-72
2021/12/24 10:24:59;;;;;;;7.28;4.68;;;18.80;99.90;;;;;;4164193;28;20212;-71
2021/12/24 10:27:03;;;;;;;5.78;4.13;;;18.90;99.90;;;;;;4163829;28;20262;-71
2021/12/24 10:29:09;;;;;;;7.38;4.13;;;18.90;99.90;;;;;;4163754;28;20262;-71
2021/12/24 10:31:11;;;;;;;5.70;4.00;;;18.90;99.90;;;;;;4163625;28;20216;-71
2021/12/24 10:33:14;;;;;;;4.35;3.78;;;18.90;99.90;;;;;;4163939;28;20290;-71
2021/12/24 10:35:21;;;;;;;7.18;4.10;;;18.90;99.90;;;;;;4163964;28;20212;-72
2021/12/24 10:37:26;;;;;;;7.45;4.25;;;18.80;99.90;;;;;;4170507;28;20219;-71
2021/12/24 10:39:31;;;;;;;5.53;4.22;;;18.90;99.90;;;;;;4180329;28;20289;-71
2021/12/24 10:41:44;;;;;;;7.30;4.22;;;18.90;99.90;;;;;;4180463;28;20223;-71
2021/12/24 10:43:47;;;;;;;5.53;3.70;;;18.90;99.90;;;;;;4175739;28;20629;-71
2021/12/24 10:46:09;;;;;;;4.55;3.85;;;18.90;99.90;;;;;;4178835;28;20208;-71
2021/12/24 10:48:19;;;;;;;5.03;3.90;;;18.90;99.90;;;;;;4180332;28;20335;-71
2021/12/24 10:50:31;;;;;;;6.43;4.30;;;18.90;99.90;;;;;;4180331;28;20203;-71
2021/12/24 10:55:08;;;;;;;6.20;3.95;;;19.00;99.90;;;;;;4165106;28;20230;-71
2021/12/24 10:57:18;;;;;;;5.80;4.10;;;19.00;99.90;;;;;;4180273;28;20613;-71
2021/12/24 10:59:40;;;;;;;6.55;4.40;;;18.90;99.90;;;;;;4179874;28;20242;-71
2021/12/24 11:01:43;;;;;;;5.15;3.42;;;19.00;99.90;;;;;;4180180;28;20215;-71
2021/12/24 11:03:46;;;;;;;4.43;3.80;;;19.00;99.90;;;;;;4180140;28;20676;-71
2021/12/24 11:05:51;;;;;;;6.47;4.25;;;19.00;99.90;;;;;;4180229;28;20366;-71
2021/12/24 11:07:54;;;;;;;5.22;4.22;;;19.00;99.90;;;;;;4180153;28;20350;-71
2021/12/24 11:10:09;;;;;;;5.53;3.97;;;19.10;99.90;;;;;;4180234;28;20265;-71
2021/12/24 11:12:35;;;;;;;5.57;3.67;;;19.10;99.90;;;;;;4179709;28;20266;-71
2021/12/24 11:14:39;;;;;;;5.28;3.97;;;19.10;99.90;;;;;;4179929;28;20216;-71
2021/12/24 11:16:45;;;;;;;6.35;3.78;;;19.10;99.90;;;;;;4179939;28;20278;-71
2021/12/24 11:18:57;;;;;;;5.30;3.97;;;19.10;99.90;;;;;;4179610;28;20215;-71
2021/12/24 11:21:01;;;;;;;5.55;3.65;;;19.20;99.90;;;;;;4179756;28;20231;-71
2021/12/24 11:23:06;;;;;;;5.35;3.78;;;19.20;99.90;;;;;;4179917;28;20220;-71
2021/12/24 11:25:09;;;;;;;8.02;4.50;;;19.10;99.90;;;;;;4180096;28;20265;-71
2021/12/24 11:27:12;;;;;;;4.57;3.72;;;19.20;99.90;;;;;;4180084;28;20215;-71
2021/12/24 11:29:14;;;;;;;6.40;4.18;;;19.20;99.90;;;;;;4179912;28;20222;-71
2021/12/24 11:31:20;;;;;;;6.18;4.13;;;19.20;99.90;;;;;;4179755;28;20274;-71
2021/12/24 11:33:25;;;;;;;7.97;4.03;;;19.20;99.90;;;;;;4163597;28;20600;-71
2021/12/24 11:35:28;;;;;;;5.35;3.80;;;19.20;99.90;;;;;;4163091;28;20216;-71
2021/12/24 11:37:31;;;;;;;7.20;4.25;;;19.20;99.90;;;;;;4166029;28;20212;-71
2021/12/24 11:39:34;;;;;;;4.75;3.90;;;19.20;99.90;;;;;;4166719;28;20262;-71
2021/12/24 11:41:37;;;;;;;5.82;3.78;;;19.20;99.90;;;;;;4166289;28;20267;-72
2021/12/24 11:43:43;;;;;;;5.15;3.80;;;19.20;99.90;;;;;;4166149;28;20217;-71
2021/12/24 11:45:46;;;;;;;5.20;3.60;;;19.20;99.90;;;;;;4166542;28;20617;-72
2021/12/24 11:47:51;;;;;;;5.70;3.97;;;19.20;99.90;;;;;;4166405;28;20267;-71
2021/12/24 11:49:53;;;;;;;5.22;3.67;;;19.30;99.90;;;;;;4166249;28;20221;-72
2021/12/24 11:51:56;;;;;;;4.97;3.40;;;19.20;99.90;;;;;;4166476;28;20224;-72
2021/12/24 11:54:00;;;;;;;6.22;4.13;;;19.20;99.90;;;;;;4161769;28;20281;-71
2021/12/24 11:56:07;;;;;;;5.63;3.70;;;19.30;99.90;;;;;;4159658;28;20217;-72
2021/12/24 11:58:16;;;;;;;5.15;3.85;;;19.30;99.90;;;;;;4150035;28;20220;-71
2021/12/24 12:00:23;;;;;;;5.45;3.55;;;19.30;99.90;;;;;;4149671;28;20236;-71
2021/12/24 12:02:36;;;;;;;3.92;3.42;;;19.30;99.90;;;;;;4150349;28;20208;-71